Time;durP1;ratioP1;P1;durP2;ratioP2;P2;SDS_P1;SDS_P2;PMS_P1;PMS_P2;Temp;Humidity;BMP_temperature;BMP_pressure;BME280_temperature;BME280_humidity;BME280_pressure;Samples;Min_cycle;Max_cycle;Signal;HPM_P1;HPM_P2
2023/05/20 11:48:03;;;;;;;11.25;7.55;;;26.00;71.20;;;;;;5173587;27;20334;-63
2023/05/20 11:50:35;;;;;;;12.85;8.38;;;26.20;72.00;;;;;;5173829;27;20113;-63
2023/05/20 11:53:02;;;;;;;8.52;7.53;;;26.70;70.40;;;;;;5173780;27;20019;-63
2023/05/20 11:55:28;;;;;;;8.23;7.07;;;27.30;70.00;;;;;;5173496;27;20109;-63
2023/05/20 11:57:55;;;;;;;9.20;6.72;;;27.10;67.60;;;;;;5173903;27;20077;-69
2023/05/20 12:00:22;;;;;;;7.65;6.78;;;27.00;67.40;;;;;;5173579;27;20087;-71
2023/05/20 12:02:48;;;;;;;7.80;6.68;;;26.90;67.40;;;;;;5169973;27;20452;-70
2023/05/20 12:05:14;;;;;;;9.43;7.00;;;27.20;66.40;;;;;;5152639;27;20054;-63
2023/05/20 12:07:39;;;;;;;7.82;6.32;;;26.60;67.10;;;;;;5152772;27;20031;-64
2023/05/20 12:10:05;;;;;;;8.18;7.28;;;26.40;67.60;;;;;;5151193;27;20029;-63
2023/05/20 12:12:31;;;;;;;7.32;6.63;;;26.20;68.30;;;;;;5151073;27;20110;-63
2023/05/20 12:14:57;;;;;;;7.40;6.63;;;26.50;68.70;;;;;;5151945;27;20107;-64
2023/05/20 12:17:22;;;;;;;9.13;6.85;;;26.80;67.60;;;;;;5152097;27;20064;-68
2023/05/20 12:19:48;;;;;;;8.02;6.97;;;27.10;68.80;;;;;;5151089;27;20027;-64
2023/05/20 12:22:14;;;;;;;8.38;7.55;;;27.60;66.90;;;;;;5151837;27;20387;-64
2023/05/20 12:24:40;;;;;;;9.73;7.95;;;27.40;66.70;;;;;;5151735;27;20030;-63
2023/05/20 12:27:06;;;;;;;7.63;6.93;;;27.20;66.90;;;;;;5152166;27;20492;-64
2023/05/20 12:29:32;;;;;;;7.55;6.70;;;27.80;66.40;;;;;;5151117;27;20348;-64
2023/05/20 12:31:58;;;;;;;8.73;6.78;;;28.20;65.40;;;;;;5152141;27;20034;-64
2023/05/20 12:34:24;;;;;;;10.88;6.50;;;28.20;64.30;;;;;;5152095;27;20084;-62
2023/05/20 12:36:50;;;;;;;12.20;6.78;;;28.50;64.40;;;;;;5151439;27;20425;-63
2023/05/20 12:39:17;;;;;;;9.50;6.88;;;28.50;64.00;;;;;;5150617;27;20031;-63
2023/05/20 12:41:43;;;;;;;7.13;6.13;;;28.70;62.60;;;;;;5151576;27;20531;-64
2023/05/20 12:44:09;;;;;;;12.10;7.25;;;28.60;63.00;;;;;;5152027;27;20058;-64
2023/05/20 12:46:35;;;;;;;7.05;6.45;;;28.40;63.50;;;;;;5153990;27;20047;-64
2023/05/20 12:49:01;;;;;;;7.15;6.50;;;28.40;63.70;;;;;;5138268;27;20051;-63
2023/05/20 12:51:27;;;;;;;7.15;6.13;;;28.40;63.10;;;;;;5138196;27;20408;-63
2023/05/20 12:53:52;;;;;;;7.60;6.00;;;27.30;61.10;;;;;;5139385;27;20456;-66
2023/05/20 12:56:18;;;;;;;6.50;5.82;;;26.80;64.80;;;;;;5159068;27;20026;-65
2023/05/20 12:58:44;;;;;;;6.55;5.95;;;26.90;65.60;;;;;;5159544;27;20053;-64
2023/05/20 13:01:10;;;;;;;7.00;6.25;;;27.00;64.40;;;;;;5159447;27;20019;-63
2023/05/20 13:03:35;;;;;;;8.80;5.97;;;27.00;64.90;;;;;;5159242;27;20022;-64
2023/05/20 13:06:02;;;;;;;11.35;5.82;;;26.80;65.00;;;;;;5158460;27;20110;-63
2023/05/20 13:08:28;;;;;;;9.25;6.07;;;26.90;65.10;;;;;;5158815;27;20481;-77
2023/05/20 13:10:54;;;;;;;7.93;5.38;;;27.20;65.30;;;;;;5158158;27;20101;-66
2023/05/20 13:13:20;;;;;;;7.32;5.45;;;27.40;64.20;;;;;;5158324;27;20118;-66
2023/05/20 13:15:48;;;;;;;7.60;5.53;;;27.20;62.80;;;;;;5157760;27;20375;-64
2023/05/20 13:18:15;;;;;;;7.63;5.05;;;27.70;62.30;;;;;;5158386;27;20027;-62
2023/05/20 13:20:41;;;;;;;5.97;5.40;;;28.10;60.80;;;;;;5158181;27;20485;-70
2023/05/20 13:23:08;;;;;;;6.78;5.45;;;28.30;60.40;;;;;;5156951;27;20023;-70
2023/05/20 13:25:33;;;;;;;9.00;5.28;;;27.70;60.60;;;;;;5156727;27;20031;-70
2023/05/20 13:27:59;;;;;;;7.40;6.20;;;26.80;63.60;;;;;;5158247;27;20344;-70
2023/05/20 13:30:27;;;;;;;5.93;5.40;;;26.90;64.40;;;;;;5158190;27;20031;-70
2023/05/20 13:32:52;;;;;;;7.63;5.40;;;27.00;64.00;;;;;;5157124;27;20022;-64
2023/05/20 13:35:18;;;;;;;8.25;5.53;;;27.50;64.60;;;;;;5156458;27;20534;-62
2023/05/20 13:37:44;;;;;;;7.10;4.90;;;27.70;62.60;;;;;;5157559;27;20053;-62
2023/05/20 13:40:10;;;;;;;5.43;4.85;;;27.70;61.40;;;;;;5157695;27;20093;-62
2023/05/20 13:42:36;;;;;;;7.25;5.70;;;26.80;63.00;;;;;;5157897;27;20046;-62
2023/05/20 13:45:02;;;;;;;8.95;5.72;;;26.30;64.40;;;;;;5157632;27;20016;-61
2023/05/20 13:47:27;;;;;;;9.40;5.88;;;26.10;65.70;;;;;;5157673;27;20057;-62
2023/05/20 13:49:53;;;;;;;8.68;5.35;;;26.30;65.00;;;;;;5156034;27;20026;-62
2023/05/20 13:52:18;;;;;;;11.43;5.07;;;26.20;66.10;;;;;;5157713;27;20361;-76
2023/05/20 13:54:46;;;;;;;6.10;5.50;;;25.90;66.40;;;;;;5157691;27;20023;-75
2023/05/20 13:57:12;;;;;;;9.07;4.95;;;26.20;67.00;;;;;;5155648;27;20058;-76
2023/05/20 13:59:38;;;;;;;11.00;5.60;;;26.70;67.00;;;;;;5155694;27;20070;-75
2023/05/20 14:02:04;;;;;;;8.98;5.78;;;26.50;65.00;;;;;;5157239;27;20022;-75
2023/05/20 14:04:30;;;;;;;10.20;5.93;;;26.00;67.10;;;;;;5157062;27;20478;-73
2023/05/20 14:06:56;;;;;;;6.07;5.22;;;25.50;68.10;;;;;;5157072;27;20109;-75
2023/05/20 14:09:21;;;;;;;6.07;5.47;;;25.50;68.20;;;;;;5156343;27;20378;-76
2023/05/20 14:11:47;;;;;;;6.38;5.10;;;25.80;67.50;;;;;;5155699;27;20071;-75
2023/05/20 14:14:13;;;;;;;7.53;5.75;;;25.70;67.10;;;;;;5155725;27;20023;-75
2023/05/20 14:16:38;;;;;;;7.07;4.78;;;25.60;67.60;;;;;;5155519;27;20031;-75
2023/05/20 14:19:04;;;;;;;5.82;5.15;;;25.60;68.10;;;;;;5156757;27;20163;-75
2023/05/20 14:21:30;;;;;;;7.75;5.40;;;26.10;67.80;;;;;;5155611;27;20018;-75
2023/05/20 14:23:57;;;;;;;6.38;5.72;;;26.40;66.50;;;;;;5156375;27;20026;-75
2023/05/20 14:26:23;;;;;;;5.95;4.75;;;26.20;67.10;;;;;;5155009;27;20038;-75
2023/05/20 14:28:49;;;;;;;6.75;5.10;;;25.70;68.00;;;;;;5156333;27;20027;-75
2023/05/20 14:31:15;;;;;;;9.50;6.22;;;25.90;68.10;;;;;;5156403;27;20034;-75
2023/05/20 14:33:40;;;;;;;6.95;6.05;;;25.90;67.10;;;;;;5156574;27;20022;-74
2023/05/20 14:36:06;;;;;;;7.10;5.40;;;25.90;68.60;;;;;;5155087;27;20030;-75
2023/05/20 14:38:32;;;;;;;7.18;5.70;;;26.00;67.70;;;;;;5156482;27;20463;-75
2023/05/20 14:40:58;;;;;;;5.55;5.00;;;26.10;67.30;;;;;;5156565;27;20374;-75
2023/05/20 14:43:23;;;;;;;7.30;4.93;;;26.40;65.90;;;;;;5156844;27;20432;-75
2023/05/20 14:45:49;;;;;;;6.47;5.22;;;26.60;64.70;;;;;;5154784;27;20046;-75
2023/05/20 14:48:15;;;;;;;7.15;5.07;;;26.90;64.60;;;;;;5155273;27;20058;-77
2023/05/20 14:50:41;;;;;;;9.88;5.88;;;26.80;64.50;;;;;;5155425;27;20034;-76
2023/05/20 14:53:06;;;;;;;8.13;5.15;;;27.10;65.10;;;;;;5155041;27;20026;-76
2023/05/20 14:55:32;;;;;;;5.57;5.10;;;27.00;63.00;;;;;;5155755;27;20410;-62
2023/05/20 14:57:58;;;;;;;5.90;5.10;;;27.50;63.80;;;;;;5154762;27;20455;-62
2023/05/20 15:00:23;;;;;;;6.72;5.63;;;27.80;63.10;;;;;;5155767;27;20072;-62
2023/05/20 15:02:49;;;;;;;6.30;5.22;;;26.90;62.70;;;;;;5156146;27;20026;-63
2023/05/20 15:05:15;;;;;;;7.10;5.40;;;26.60;64.00;;;;;;5154606;27;20030;-62
2023/05/20 15:07:40;;;;;;;6.45;5.07;;;26.90;65.70;;;;;;5155538;27;20463;-63
2023/05/20 15:10:06;;;;;;;6.50;5.78;;;26.80;63.30;;;;;;5150593;27;20026;-63
2023/05/20 15:12:32;;;;;;;7.00;5.72;;;26.50;63.60;;;;;;5154584;27;20034;-62
2023/05/20 15:14:58;;;;;;;8.27;5.70;;;26.80;65.20;;;;;;5154040;27;20025;-63
2023/05/20 15:17:23;;;;;;;8.25;5.68;;;26.80;64.30;;;;;;5154347;27;20018;-63
2023/05/20 15:19:49;;;;;;;6.28;5.32;;;26.70;65.30;;;;;;5155413;27;20045;-63
2023/05/20 15:22:15;;;;;;;6.15;5.55;;;26.80;63.90;;;;;;5154443;27;20079;-63
2023/05/20 15:24:40;;;;;;;7.30;5.63;;;26.90;64.10;;;;;;5154537;27;20489;-63
2023/05/20 15:27:06;;;;;;;6.82;5.38;;;27.00;62.70;;;;;;5155739;27;20027;-63
2023/05/20 15:29:32;;;;;;;5.82;5.30;;;27.00;63.80;;;;;;5155506;27;20026;-63
2023/05/20 15:31:57;;;;;;;8.20;5.50;;;26.70;63.90;;;;;;5155548;27;20030;-63
2023/05/20 15:34:23;;;;;;;6.13;5.28;;;27.10;64.60;;;;;;5155453;27;20027;-63
2023/05/20 15:36:49;;;;;;;6.57;5.93;;;27.20;63.70;;;;;;5153972;27;20034;-63
2023/05/20 15:39:14;;;;;;;8.90;5.85;;;26.80;63.80;;;;;;5154655;27;20378;-63
2023/05/20 15:41:41;;;;;;;6.18;5.57;;;26.70;64.50;;;;;;5155380;27;20023;-63
2023/05/20 15:44:07;;;;;;;16.35;6.90;;;26.20;65.20;;;;;;5155414;27;20062;-62
2023/05/20 15:46:32;;;;;;;6.95;5.57;;;25.80;66.10;;;;;;5155558;27;20399;-63
2023/05/20 15:48:58;;;;;;;7.13;5.40;;;25.90;66.60;;;;;;5155557;27;20058;-62
2023/05/20 15:51:24;;;;;;;8.68;6.05;;;25.80;65.80;;;;;;5155852;27;20029;-63
2023/05/20 15:53:50;;;;;;;7.30;6.10;;;26.10;66.30;;;;;;5154106;27;20455;-64
2023/05/20 15:56:15;;;;;;;12.40;6.40;;;25.60;66.40;;;;;;5155440;27;20438;-66
2023/05/20 15:58:42;;;;;;;8.25;5.72;;;25.40;67.70;;;;;;5155321;27;20031;-63
2023/05/20 16:01:08;;;;;;;11.32;6.57;;;25.40;68.90;;;;;;5154068;27;20027;-64
2023/05/20 16:03:34;;;;;;;8.68;6.05;;;25.30;68.60;;;;;;5155281;27;20055;-65
2023/05/20 16:06:00;;;;;;;10.95;6.03;;;25.50;69.90;;;;;;5155222;27;20027;-65
2023/05/20 16:08:28;;;;;;;9.70;5.93;;;25.80;68.50;;;;;;5155115;27;20447;-68
2023/05/20 16:10:54;;;;;;;7.50;6.20;;;26.10;68.50;;;;;;5155109;27;20025;-66
2023/05/20 16:13:19;;;;;;;9.55;6.10;;;26.30;68.20;;;;;;5153702;27;20023;-80
2023/05/20 16:15:45;;;;;;;6.60;5.90;;;26.50;66.90;;;;;;5154988;27;20033;-64
2023/05/20 16:18:11;;;;;;;8.60;6.07;;;26.40;67.60;;;;;;5155360;27;20027;-64
2023/05/20 16:20:37;;;;;;;9.40;6.38;;;26.50;67.20;;;;;;5155392;27;20029;-74
2023/05/20 16:23:04;;;;;;;8.52;5.78;;;26.20;67.40;;;;;;5156130;27;20018;-75
2023/05/20 16:25:29;;;;;;;9.18;6.45;;;25.90;69.00;;;;;;5157742;27;20083;-59
2023/05/20 16:27:57;;;;;;;7.75;6.10;;;25.50;69.20;;;;;;5147852;27;20030;-61
2023/05/20 16:30:22;;;;;;;7.40;6.40;;;25.20;69.30;;;;;;5151504;27;20079;-60
2023/05/20 16:32:48;;;;;;;7.95;6.40;;;24.90;69.40;;;;;;5158110;27;20026;-59
2023/05/20 16:35:15;;;;;;;10.45;6.70;;;24.70;69.70;;;;;;5157207;27;20519;-59
2023/05/20 16:37:41;;;;;;;7.80;6.15;;;24.40;71.80;;;;;;5158473;27;20387;-60
2023/05/20 16:40:08;;;;;;;9.20;6.63;;;24.20;71.10;;;;;;5159083;27;20523;-70
2023/05/20 16:42:34;;;;;;;13.73;6.10;;;23.90;71.60;;;;;;5158642;27;20110;-66
2023/05/20 16:45:00;;;;;;;9.70;6.57;;;23.70;74.30;;;;;;5158682;27;20026;-66
2023/05/20 16:47:25;;;;;;;7.88;6.57;;;23.50;73.80;;;;;;5158150;27;20043;-66
2023/05/20 16:49:51;;;;;;;9.48;6.53;;;23.40;74.50;;;;;;5158281;27;20031;-65
2023/05/20 16:52:17;;;;;;;10.93;6.32;;;23.30;77.20;;;;;;5158633;27;20058;-66
2023/05/20 16:54:42;;;;;;;13.48;7.60;;;23.10;80.40;;;;;;5158361;27;20023;-68
2023/05/20 16:57:11;;;;;;;14.93;6.80;;;22.90;76.50;;;;;;5157534;27;20387;-74
2023/05/20 16:59:36;;;;;;;9.48;6.60;;;22.80;77.40;;;;;;5157579;27;20027;-67
2023/05/20 17:02:02;;;;;;;8.85;6.55;;;22.80;76.00;;;;;;5158641;27;20379;-70
2023/05/20 17:04:28;;;;;;;8.52;7.43;;;22.80;77.80;;;;;;5159056;27;20459;-70
2023/05/20 17:06:55;;;;;;;18.58;7.25;;;22.60;77.80;;;;;;5160780;27;20077;-63
2023/05/20 17:09:21;;;;;;;11.25;6.72;;;22.60;79.50;;;;;;5163321;27;20082;-65
2023/05/20 17:11:46;;;;;;;10.73;7.07;;;22.50;82.70;;;;;;5158678;27;20026;-67
2023/05/20 17:14:12;;;;;;;6.55;5.80;;;22.40;84.70;;;;;;5159272;27;20053;-61
2023/05/20 17:16:38;;;;;;;9.77;6.20;;;22.20;80.90;;;;;;5158698;27;20038;-61
2023/05/20 17:19:03;;;;;;;16.42;8.18;;;22.20;81.40;;;;;;5157595;27;20027;-60
2023/05/20 17:21:29;;;;;;;11.48;6.82;;;22.20;80.80;;;;;;5158025;27;20019;-61
2023/05/20 17:23:55;;;;;;;11.30;6.93;;;22.10;90.00;;;;;;5158533;27;20371;-61
2023/05/20 17:26:21;;;;;;;12.13;7.57;;;21.90;88.00;;;;;;5158539;27;20034;-61
2023/05/20 17:28:47;;;;;;;12.10;8.00;;;21.70;93.50;;;;;;5158253;27;20079;-60
2023/05/20 17:31:12;;;;;;;11.77;7.45;;;21.50;95.50;;;;;;5157724;27;20030;-59
2023/05/20 17:33:38;;;;;;;10.45;7.50;;;21.20;96.20;;;;;;5157026;27;20057;-67
2023/05/20 17:36:04;;;;;;;9.57;6.80;;;21.00;99.90;;;;;;5170226;27;20042;-71
2023/05/20 17:38:30;;;;;;;10.65;7.25;;;20.80;99.90;;;;;;5135693;27;20027;-71
2023/05/20 17:40:55;;;;;;;10.23;7.13;;;20.60;99.90;;;;;;5135763;27;20026;-72
2023/05/20 17:43:23;;;;;;;10.48;7.13;;;20.50;99.90;;;;;;5135752;27;20027;-70
2023/05/20 17:45:49;;;;;;;14.05;7.25;;;20.40;99.90;;;;;;5136408;27;20072;-71
2023/05/20 17:48:15;;;;;;;14.13;7.88;;;20.30;99.90;;;;;;5137029;27;20023;-71
2023/05/20 17:50:41;;;;;;;12.75;7.72;;;20.10;99.90;;;;;;5135456;27;20024;-71
2023/05/20 17:53:06;;;;;;;8.73;7.10;;;19.90;99.90;;;;;;5135033;27;20460;-70
2023/05/20 17:55:35;;;;;;;15.05;8.30;;;19.80;99.90;;;;;;5136328;27;20026;-71
2023/05/20 17:58:05;;;;;;;9.20;7.03;;;19.60;99.90;;;;;;5135131;27;20049;-71
2023/05/20 18:00:33;;;;;;;9.07;7.20;;;19.50;99.90;;;;;;5136600;27;20026;-71
2023/05/20 18:02:59;;;;;;;13.52;7.25;;;19.30;99.90;;;;;;5134750;27;20031;-71
2023/05/20 18:05:25;;;;;;;13.52;7.50;;;19.20;99.90;;;;;;5135534;27;20023;-70
2023/05/20 18:07:51;;;;;;;9.15;7.75;;;19.00;99.90;;;;;;5136430;27;20106;-69
2023/05/20 18:10:17;;;;;;;11.07;7.68;;;18.90;99.90;;;;;;5136303;27;20055;-71
2023/05/20 18:12:44;;;;;;;10.73;8.68;;;18.70;99.90;;;;;;5136556;27;20054;-70
2023/05/20 18:15:09;;;;;;;11.13;7.82;;;18.60;99.90;;;;;;5135882;27;20452;-70
2023/05/20 18:17:35;;;;;;;11.90;7.80;;;18.60;99.90;;;;;;5136103;27;20030;-70
2023/05/20 18:20:02;;;;;;;10.82;8.02;;;18.40;99.90;;;;;;5136106;27;20031;-70
2023/05/20 18:22:27;;;;;;;13.02;8.15;;;18.30;99.90;;;;;;5135967;27;20472;-70
2023/05/20 18:24:53;;;;;;;12.88;8.45;;;18.10;99.90;;;;;;5136042;27;20030;-70
2023/05/20 18:27:19;;;;;;;10.40;9.07;;;18.00;99.90;;;;;;5135955;27;20026;-71
2023/05/20 18:29:45;;;;;;;12.82;8.85;;;17.90;99.90;;;;;;5136230;27;20474;-70
2023/05/20 18:32:10;;;;;;;16.80;8.65;;;17.80;99.90;;;;;;5135949;27;20521;-70
2023/05/20 18:34:36;;;;;;;12.05;9.00;;;17.70;99.90;;;;;;5135713;27;20023;-71
2023/05/20 18:37:01;;;;;;;11.80;8.98;;;17.60;99.90;;;;;;5134398;27;20130;-71
2023/05/20 18:39:27;;;;;;;17.13;9.20;;;17.50;99.90;;;;;;5135503;27;20384;-71
2023/05/20 18:41:53;;;;;;;15.63;10.02;;;17.40;99.90;;;;;;5134162;27;20027;-72
2023/05/20 18:44:18;;;;;;;13.43;9.50;;;17.30;99.90;;;;;;5134491;27;20142;-69
2023/05/20 18:46:44;;;;;;;10.98;9.07;;;17.20;99.90;;;;;;5135090;27;20088;-70
2023/05/20 18:49:10;;;;;;;15.13;9.38;;;17.20;99.90;;;;;;5135428;27;20401;-71
2023/05/20 18:51:37;;;;;;;16.70;9.57;;;17.10;99.90;;;;;;5135861;27;20075;-71
2023/05/20 18:54:03;;;;;;;13.95;10.27;;;17.00;99.90;;;;;;5134335;27;20380;-70
2023/05/20 18:56:28;;;;;;;15.98;10.25;;;16.90;99.90;;;;;;5133799;27;20024;-71
2023/05/20 18:58:54;;;;;;;11.48;9.88;;;16.80;99.90;;;;;;5135266;27;20035;-69
2023/05/20 19:01:20;;;;;;;14.43;9.82;;;16.70;99.90;;;;;;5135337;27;20050;-70
2023/05/20 19:03:46;;;;;;;16.95;10.43;;;16.60;99.90;;;;;;5133988;27;20023;-70
2023/05/20 19:06:12;;;;;;;14.05;9.38;;;16.60;99.90;;;;;;5135617;27;20344;-70
2023/05/20 19:08:41;;;;;;;13.05;10.02;;;16.50;99.90;;;;;;5133962;27;20027;-70
2023/05/20 19:11:07;;;;;;;12.55;9.98;;;16.40;99.90;;;;;;5135468;27;20147;-71
2023/05/20 19:13:33;;;;;;;14.45;10.23;;;16.30;99.90;;;;;;5133716;27;20047;-71
2023/05/20 19:15:59;;;;;;;12.10;10.32;;;16.20;99.90;;;;;;5133600;27;20026;-71
2023/05/20 19:18:26;;;;;;;15.35;10.50;;;16.20;99.90;;;;;;5134944;27;20110;-72
2023/05/20 19:20:52;;;;;;;16.25;10.32;;;16.10;99.90;;;;;;5134991;27;20023;-72
2023/05/20 19:23:18;;;;;;;17.42;10.65;;;16.10;99.90;;;;;;5133720;27;20027;-70
2023/05/20 19:25:44;;;;;;;13.07;10.68;;;16.00;99.90;;;;;;5133544;27;20027;-72
2023/05/20 19:28:10;;;;;;;15.82;10.40;;;16.00;99.90;;;;;;5133493;27;20035;-74
2023/05/20 19:30:36;;;;;;;16.85;11.63;;;16.00;99.90;;;;;;5134454;27;20020;-76
2023/05/20 19:33:03;;;;;;;19.98;12.13;;;15.90;99.90;;;;;;5133577;27;20027;-76
2023/05/20 19:35:29;;;;;;;13.30;10.75;;;15.90;99.90;;;;;;5134822;27;20118;-71
2023/05/20 19:37:55;;;;;;;12.38;9.88;;;15.90;99.90;;;;;;5133616;28;20043;-71
2023/05/20 19:40:21;;;;;;;22.20;11.52;;;;;;;;;;5133400;28;20038;-72
2023/05/20 19:42:47;;;;;;;14.02;11.63;;;16.00;99.90;;;;;;5134714;28;20023;-71
2023/05/20 19:45:13;;;;;;;18.27;11.73;;;16.00;99.90;;;;;;5134439;28;20029;-71
2023/05/20 19:47:39;;;;;;;15.80;11.73;;;16.00;99.90;;;;;;5133216;28;20040;-71
2023/05/20 19:50:05;;;;;;;16.35;11.98;;;16.00;99.90;;;;;;5133715;28;20027;-72
2023/05/20 19:52:31;;;;;;;15.93;10.48;;;16.00;99.90;;;;;;5133217;28;20027;-72
2023/05/20 19:54:57;;;;;;;15.57;11.70;;;16.00;99.90;;;;;;5134675;28;20106;-72
2023/05/20 19:57:22;;;;;;;19.10;11.77;;;16.00;99.90;;;;;;5135323;27;20027;-72
2023/05/20 19:59:48;;;;;;;16.65;12.32;;;15.90;99.90;;;;;;5137758;27;20027;-71
2023/05/20 20:02:14;;;;;;;14.15;11.63;;;15.90;99.90;;;;;;5138863;27;20098;-72
2023/05/20 20:04:42;;;;;;;17.50;12.38;;;15.90;99.90;;;;;;5138671;27;20115;-73
2023/05/20 20:07:08;;;;;;;16.35;11.73;;;15.80;99.90;;;;;;5138906;27;20031;-71
2023/05/20 20:09:35;;;;;;;17.83;10.90;;;15.80;99.90;;;;;;5137294;27;20083;-71
2023/05/20 20:12:03;;;;;;;16.65;12.05;;;15.70;99.90;;;;;;5138311;27;20027;-71
2023/05/20 20:14:29;;;;;;;17.33;12.23;;;15.70;99.90;;;;;;5138398;27;20456;-72
2023/05/20 20:16:55;;;;;;;15.05;12.88;;;15.60;99.90;;;;;;5138545;27;20123;-71
2023/05/20 20:19:21;;;;;;;22.42;13.25;;;15.50;99.90;;;;;;5138191;27;20494;-79
2023/05/20 20:21:47;;;;;;;17.45;12.15;;;15.40;99.90;;;;;;5137097;27;20380;-72
2023/05/20 20:24:14;;;;;;;21.55;11.90;;;15.40;99.90;;;;;;5138318;27;20038;-72
2023/05/20 20:26:39;;;;;;;17.65;13.13;;;15.30;99.90;;;;;;5138156;27;20095;-73
2023/05/20 20:29:06;;;;;;;17.48;12.10;;;15.20;99.90;;;;;;5138277;27;20019;-73
2023/05/20 20:31:32;;;;;;;17.17;12.57;;;15.20;99.90;;;;;;5137843;27;20027;-72
2023/05/20 20:33:57;;;;;;;15.75;12.13;;;15.10;99.90;;;;;;5139040;27;20027;-73
2023/05/20 20:36:23;;;;;;;15.15;12.50;;;15.10;99.90;;;;;;5139575;27;20384;-72
2023/05/20 20:38:49;;;;;;;20.17;12.75;;;15.00;99.90;;;;;;5136633;27;20023;-72
2023/05/20 20:41:15;;;;;;;17.42;14.10;;;14.90;99.90;;;;;;5137933;27;20050;-72
2023/05/20 20:43:44;;;;;;;18.67;13.75;;;14.90;99.90;;;;;;5137629;27;20030;-72
2023/05/20 20:46:13;;;;;;;19.42;14.57;;;14.80;99.90;;;;;;5137517;27;20050;-72
2023/05/20 20:48:46;;;;;;;20.35;14.43;;;14.70;99.90;;;;;;5136249;27;20030;-72
2023/05/20 20:51:15;;;;;;;22.15;14.98;;;14.70;99.90;;;;;;5136515;27;20468;-71
2023/05/20 20:53:41;;;;;;;21.55;15.82;;;14.60;99.90;;;;;;5137441;27;20464;-72
2023/05/20 20:56:08;;;;;;;19.35;13.85;;;14.60;99.90;;;;;;5135950;27;20031;-72
2023/05/20 20:58:34;;;;;;;17.08;14.65;;;14.60;99.90;;;;;;5137704;27;20079;-71
2023/05/20 21:01:02;;;;;;;19.67;15.35;;;14.50;99.90;;;;;;5137604;27;20412;-71
2023/05/20 21:03:28;;;;;;;18.70;14.55;;;14.50;99.90;;;;;;5137586;27;20114;-71
2023/05/20 21:05:53;;;;;;;20.10;15.75;;;14.40;99.90;;;;;;5137296;27;20051;-72
2023/05/20 21:08:21;;;;;;;19.75;15.75;;;14.40;99.90;;;;;;5137020;27;20105;-71
2023/05/20 21:10:47;;;;;;;21.25;15.68;;;14.40;99.90;;;;;;5136012;27;20451;-71
2023/05/20 21:13:13;;;;;;;19.50;15.60;;;14.40;99.90;;;;;;5136071;27;20474;-72
2023/05/20 21:15:40;;;;;;;19.25;14.50;;;14.30;99.90;;;;;;5137271;27;20102;-72
2023/05/20 21:18:06;;;;;;;20.52;15.60;;;14.30;99.90;;;;;;5137564;27;20031;-71
2023/05/20 21:20:31;;;;;;;20.13;16.27;;;14.20;99.90;;;;;;5136365;27;20027;-71
2023/05/20 21:22:57;;;;;;;18.15;15.73;;;14.10;99.90;;;;;;5135897;27;20023;-71
2023/05/20 21:25:22;;;;;;;22.17;16.85;;;14.10;99.90;;;;;;5137093;27;20023;-71
2023/05/20 21:27:48;;;;;;;21.80;17.42;;;14.10;99.90;;;;;;5136770;27;20023;-72
2023/05/20 21:30:15;;;;;;;28.83;16.58;;;14.00;99.90;;;;;;5136990;27;20023;-70
2023/05/20 21:32:41;;;;;;;22.85;16.77;;;14.00;99.90;;;;;;5137072;27;20456;-71
2023/05/20 21:35:07;;;;;;;23.00;17.38;;;14.00;99.90;;;;;;5136941;27;20019;-70
2023/05/20 21:37:32;;;;;;;25.08;17.60;;;13.90;99.90;;;;;;5136886;27;20027;-70
2023/05/20 21:39:58;;;;;;;22.77;17.27;;;13.90;99.90;;;;;;5136736;27;20031;-72
2023/05/20 21:42:24;;;;;;;22.88;17.92;;;13.90;99.90;;;;;;5135772;27;20027;-72
2023/05/20 21:44:50;;;;;;;21.65;16.60;;;13.80;99.90;;;;;;5135619;27;20072;-72
2023/05/20 21:47:15;;;;;;;21.30;16.48;;;13.80;99.90;;;;;;5136130;27;20400;-72
2023/05/20 21:49:41;;;;;;;19.15;16.15;;;13.70;99.90;;;;;;5136590;27;20019;-72
2023/05/20 21:52:07;;;;;;;21.55;16.17;;;13.70;99.90;;;;;;5135278;27;20380;-71
2023/05/20 21:54:32;;;;;;;22.80;17.52;;;13.70;99.90;;;;;;5134954;27;20054;-72
2023/05/20 21:56:58;;;;;;;23.45;18.08;;;13.60;99.90;;;;;;5136404;27;20078;-72
2023/05/20 21:59:23;;;;;;;23.13;17.45;;;13.60;99.90;;;;;;5136374;27;20062;-72
2023/05/20 22:01:49;;;;;;;22.85;16.63;;;13.60;99.90;;;;;;5136358;27;20074;-72
2023/05/20 22:04:17;;;;;;;23.60;17.08;;;13.50;99.90;;;;;;5134915;27;20071;-72
2023/05/20 22:06:43;;;;;;;20.52;17.08;;;13.50;99.90;;;;;;5136463;27;20035;-72
2023/05/20 22:09:09;;;;;;;25.88;17.75;;;13.50;99.90;;;;;;5136342;27;20030;-72
2023/05/20 22:11:36;;;;;;;24.02;16.85;;;13.40;99.90;;;;;;5136275;27;20368;-72
2023/05/20 22:14:03;;;;;;;22.75;17.35;;;13.40;99.90;;;;;;5136381;27;20068;-72
2023/05/20 22:16:29;;;;;;;24.85;17.27;;;;;;;;;;5134874;27;20042;-72
2023/05/20 22:18:56;;;;;;;20.50;16.30;;;13.40;99.90;;;;;;5135356;27;20023;-72
2023/05/20 22:21:23;;;;;;;21.13;17.35;;;13.40;99.90;;;;;;5135266;27;20034;-72
2023/05/20 22:23:48;;;;;;;23.08;17.35;;;13.30;99.90;;;;;;5134834;27;20344;-73
2023/05/20 22:26:17;;;;;;;25.00;17.52;;;13.30;99.90;;;;;;5134761;27;20516;-73
2023/05/20 22:28:43;;;;;;;26.95;17.63;;;13.30;99.90;;;;;;5134960;27;20023;-73
2023/05/20 22:31:08;;;;;;;24.13;17.33;;;13.20;99.90;;;;;;5139553;27;20073;-72
2023/05/20 22:33:35;;;;;;;23.70;18.63;;;13.20;99.90;;;;;;5138860;27;20053;-72
2023/05/20 22:36:01;;;;;;;24.77;18.25;;;13.20;99.90;;;;;;5139700;27;20528;-72
2023/05/20 22:38:28;;;;;;;23.70;18.05;;;13.10;99.90;;;;;;5137192;27;20031;-72
2023/05/20 22:40:54;;;;;;;26.10;17.85;;;13.10;99.90;;;;;;5140394;27;20023;-72
2023/05/20 22:43:22;;;;;;;23.80;17.95;;;13.10;99.90;;;;;;5138430;27;20027;-72
2023/05/20 22:45:47;;;;;;;21.88;17.02;;;13.00;99.90;;;;;;5136743;27;20448;-72
2023/05/20 22:48:13;;;;;;;22.08;17.70;;;13.00;99.90;;;;;;5135612;27;20027;-72
2023/05/20 22:50:39;;;;;;;22.10;16.63;;;13.00;99.90;;;;;;5135527;27;20026;-72
2023/05/20 22:53:04;;;;;;;27.88;19.60;;;12.90;99.90;;;;;;5134227;27;20020;-73
2023/05/20 22:55:30;;;;;;;29.80;18.42;;;12.90;99.90;;;;;;5135483;27;20023;-72
2023/05/20 22:57:56;;;;;;;25.42;18.98;;;12.90;99.90;;;;;;5134125;27;20027;-73
2023/05/20 23:00:22;;;;;;;24.58;19.40;;;12.90;99.90;;;;;;5134132;27;20453;-72
2023/05/20 23:02:48;;;;;;;28.52;18.45;;;12.90;99.90;;;;;;5134793;27;20031;-72
2023/05/20 23:05:14;;;;;;;27.85;17.85;;;12.80;99.90;;;;;;5134888;27;20116;-72
2023/05/20 23:07:40;;;;;;;28.50;18.75;;;12.80;99.90;;;;;;5135218;27;20110;-73
2023/05/20 23:10:06;;;;;;;24.50;18.35;;;12.70;99.90;;;;;;5135235;27;20111;-72
2023/05/20 23:12:32;;;;;;;24.70;17.60;;;12.70;99.90;;;;;;5135724;27;20044;-73
2023/05/20 23:14:57;;;;;;;24.10;17.92;;;12.70;99.90;;;;;;5137026;27;20038;-76
2023/05/20 23:17:23;;;;;;;24.52;17.80;;;12.60;99.90;;;;;;5136656;27;20088;-71
2023/05/20 23:19:49;;;;;;;27.17;18.92;;;12.60;99.90;;;;;;5135912;27;20035;-70
2023/05/20 23:22:15;;;;;;;29.50;19.27;;;12.60;99.90;;;;;;5135640;27;20027;-70
2023/05/20 23:24:40;;;;;;;27.17;19.00;;;12.60;99.90;;;;;;5135304;27;20023;-71
2023/05/20 23:27:06;;;;;;;24.38;17.98;;;12.60;99.90;;;;;;5135175;27;20475;-71
2023/05/20 23:29:32;;;;;;;27.02;18.42;;;12.60;99.90;;;;;;5135034;27;20102;-71
2023/05/20 23:31:57;;;;;;;23.73;17.83;;;12.50;99.90;;;;;;5134778;27;20031;-71
2023/05/20 23:34:23;;;;;;;25.50;17.73;;;12.50;99.90;;;;;;5134861;27;20026;-71
2023/05/20 23:36:51;;;;;;;27.38;19.15;;;12.50;99.90;;;;;;5134603;28;20031;-71
2023/05/20 23:39:17;;;;;;;24.08;18.33;;;12.50;99.90;;;;;;5133594;28;20116;-71
2023/05/20 23:41:42;;;;;;;26.52;18.38;;;12.40;99.90;;;;;;5133654;28;20027;-71
2023/05/20 23:44:08;;;;;;;26.98;18.10;;;12.40;99.90;;;;;;5133140;28;20115;-71
2023/05/20 23:46:34;;;;;;;26.52;19.40;;;12.40;99.90;;;;;;5133098;28;20047;-71
2023/05/20 23:49:00;;;;;;;24.75;18.42;;;12.30;99.90;;;;;;5134741;28;20023;-71
2023/05/20 23:51:26;;;;;;;25.42;18.52;;;12.30;99.90;;;;;;5133861;28;20444;-71
2023/05/20 23:53:53;;;;;;;24.48;17.85;;;12.30;99.90;;;;;;5133752;28;20388;-71
2023/05/20 23:56:18;;;;;;;25.83;18.50;;;12.30;99.90;;;;;;5133301;28;20038;-71
2023/05/20 23:58:44;;;;;;;25.40;18.83;;;12.30;99.90;;;;;;5133366;28;20458;-70
